CheckWX is a tool to help pilots better visualize weather data.  It is not intended as a substitute for an official pre-flight weather briefing.

23:44:41 UTC

EGPC TAF
Wick Airport
Wick, United Kingdom
TAF EGPC 261401Z 2615/2624 28009KT 9999 FEW020 PROB30 TEMPO 2615/2618 29015G25KT

May-26@
15:00 UTC

May-26 @ 15:00 UTC

May-27@
00:00 UTC

May-27 @ 00:00 UTC

TAF EGPC 261401Z 2615/2624 28009KT 9999 FEW020
Wind
  • 280° at 9 KTS
Cloud Levels
  • Few at 2,000' AGL

May-26@
15:00 UTC

May-26 @ 15:00 UTC

May-26@
18:00 UTC

May-26 @ 18:00 UTC

PROB30 TEMPO 2615/2618 29015G25KT

Expired

Wind
  • 290° at 15 KTS
  • {Gusting to 25 KTS
Cloud Levels